Virtual Norwegian is not affiliated with Norwegian Air Shuttle in any way.
If you are looking for the real "Norwegian", or you wish to book Norwegian flights, please visit Norwegian.com


We use cookies to ensure you get the best experience on our website.   ACCEPT

LIRF - FCO - Rome (Fiumicino)

General Info Alternate Airport
ICAO: LIRF Elevation: 15 ft ICAO: LIRN
IATA: FCO Country: Italy IATA: NAP
City: Rome Charts: Log in to view charts City: Naples
Name: Fiumicino Hub: Yes Name Capodichino
General Info
ICAO: LIRF
IATA: FCO
City: Rome
Name: Fiumicino
Elevation: 15 ft
Country: Italy
Charts: Log in to view charts
Hub: Yes
 
Alternate Airport
ICAO: LIRN
IATA: NAP
City: Naples
Name: Capodichino

Weather
231450Z 34009KT 310V020 9999 FEW030 19/03 Q1012 NOSIG
Weather
231450Z 34009KT 310V020 9999 FEW030 19/03 Q1012 NOSIG

Runway Info
07
Length ILS/LOC Heading
3307 m N/A 070
16C
Length ILS/LOC Course
3602 m 108.50 161
16L
Length ILS/LOC Course
3902 m 108.10 161
16R
Length ILS/LOC Course
3902 m 109.75 161
25
Length ILS/LOC Course
3307 m 110.15 248
34C
Length ILS/LOC Course
3602 m 108.50 341
34L
Length ILS/LOC Course
3902 m 108.90 341
34R
Length ILS/LOC Course
3902 m 111.55 341

NOTAMs
NOTAMs currently unavailable.
NOTAMs
NOTAMs currently unavailable

Route map
Airport
Airport (hub)